sensor_id;sensor_type;location;lat;lon;timestamp;pressure;altitude;pressure_sealevel;temperature;humidity
50394;BME280;36308;46.312;25.288;2022-08-18T00:02:08;95818.25;;;19.86;69.45
50394;BME280;36308;46.312;25.288;2022-08-18T00:04:34;95802.66;;;19.69;69.55
50394;BME280;36308;46.312;25.288;2022-08-18T00:07:07;95836.72;;;19.81;69.41
50394;BME280;36308;46.312;25.288;2022-08-18T00:09:35;95822.91;;;19.77;69.44
50394;BME280;36308;46.312;25.288;2022-08-18T00:12:04;95823.88;;;19.72;69.32
50394;BME280;36308;46.312;25.288;2022-08-18T00:14:30;95832.66;;;19.69;69.46
50394;BME280;36308;46.312;25.288;2022-08-18T00:16:56;95809.88;;;19.56;69.71
50394;BME280;36308;46.312;25.288;2022-08-18T00:19:23;95815.69;;;19.55;69.71
50394;BME280;36308;46.312;25.288;2022-08-18T00:21:48;95816.31;;;19.52;69.39
50394;BME280;36308;46.312;25.288;2022-08-18T00:24:14;95829.78;;;19.57;69.68
50394;BME280;36308;46.312;25.288;2022-08-18T00:26:39;95806.38;;;19.38;69.70
50394;BME280;36308;46.312;25.288;2022-08-18T00:29:05;95811.50;;;19.49;69.70
50394;BME280;36308;46.312;25.288;2022-08-18T00:31:31;95812.78;;;19.43;69.65
50394;BME280;36308;46.312;25.288;2022-08-18T00:33:56;95818.22;;;19.43;69.75
50394;BME280;36308;46.312;25.288;2022-08-18T00:36:22;95820.97;;;19.43;69.63
50394;BME280;36308;46.312;25.288;2022-08-18T00:38:47;95819.16;;;19.38;69.77
50394;BME280;36308;46.312;25.288;2022-08-18T00:41:13;95810.38;;;19.32;69.61
50394;BME280;36308;46.312;25.288;2022-08-18T00:43:43;95822.38;;;19.31;69.62
50394;BME280;36308;46.312;25.288;2022-08-18T00:46:14;95828.13;;;19.30;69.69
50394;BME280;36308;46.312;25.288;2022-08-18T00:48:41;95836.97;;;19.27;69.59
50394;BME280;36308;46.312;25.288;2022-08-18T00:51:10;95831.34;;;19.23;69.69
50394;BME280;36308;46.312;25.288;2022-08-18T00:53:42;95832.00;;;19.20;69.71
50394;BME280;36308;46.312;25.288;2022-08-18T00:56:17;95827.16;;;19.17;69.79
50394;BME280;36308;46.312;25.288;2022-08-18T00:58:49;95819.44;;;19.02;69.57
50394;BME280;36308;46.312;25.288;2022-08-18T01:01:17;95833.88;;;19.11;69.74
50394;BME280;36308;46.312;25.288;2022-08-18T01:03:45;95834.03;;;19.06;69.63
50394;BME280;36308;46.312;25.288;2022-08-18T01:06:26;95806.25;;;18.86;69.82
50394;BME280;36308;46.312;25.288;2022-08-18T01:08:55;95837.38;;;19.03;69.85
50394;BME280;36308;46.312;25.288;2022-08-18T01:11:21;95838.03;;;19.00;69.84
50394;BME280;36308;46.312;25.288;2022-08-18T01:13:46;95821.00;;;18.85;70.14
50394;BME280;36308;46.312;25.288;2022-08-18T01:16:12;95823.56;;;18.90;70.20
50394;BME280;36308;46.312;25.288;2022-08-18T01:18:57;95801.22;;;18.71;70.01
50394;BME280;36308;46.312;25.288;2022-08-18T01:21:49;95833.19;;;18.88;69.91
50394;BME280;36308;46.312;25.288;2022-08-18T01:24:19;95827.53;;;18.84;70.18
50394;BME280;36308;46.312;25.288;2022-08-18T01:26:48;95831.72;;;18.82;70.34
50394;BME280;36308;46.312;25.288;2022-08-18T01:29:17;95805.34;;;18.60;70.44
50394;BME280;36308;46.312;25.288;2022-08-18T01:31:49;95836.97;;;18.78;70.61
50394;BME280;36308;46.312;25.288;2022-08-18T01:34:22;95815.47;;;18.68;70.86
50394;BME280;36308;46.312;25.288;2022-08-18T01:36:49;95832.78;;;18.72;71.03
50394;BME280;36308;46.312;25.288;2022-08-18T01:39:17;95836.78;;;18.74;71.11
50394;BME280;36308;46.312;25.288;2022-08-18T01:41:43;95834.19;;;18.69;71.37
50394;BME280;36308;46.312;25.288;2022-08-18T01:44:09;95824.25;;;18.65;71.41
50394;BME280;36308;46.312;25.288;2022-08-18T01:46:36;95838.22;;;18.72;71.56
50394;BME280;36308;46.312;25.288;2022-08-18T01:49:02;95829.03;;;18.59;71.71
50394;BME280;36308;46.312;25.288;2022-08-18T01:51:29;95842.06;;;18.71;71.59
50394;BME280;36308;46.312;25.288;2022-08-18T01:53:57;95834.03;;;18.66;71.90
50394;BME280;36308;46.312;25.288;2022-08-18T01:56:23;95837.88;;;18.65;71.82
50394;BME280;36308;46.312;25.288;2022-08-18T01:58:51;95843.19;;;18.70;71.78
50394;BME280;36308;46.312;25.288;2022-08-18T02:01:16;95828.91;;;18.64;72.05
50394;BME280;36308;46.312;25.288;2022-08-18T02:03:46;95840.47;;;18.70;72.06
50394;BME280;36308;46.312;25.288;2022-08-18T02:06:15;95829.69;;;18.65;72.05
50394;BME280;36308;46.312;25.288;2022-08-18T02:08:45;95829.69;;;18.65;72.43
50394;BME280;36308;46.312;25.288;2022-08-18T02:11:11;95840.47;;;18.70;72.36
50394;BME280;36308;46.312;25.288;2022-08-18T02:13:37;95843.69;;;18.72;72.55
50394;BME280;36308;46.312;25.288;2022-08-18T02:16:04;95821.34;;;18.61;72.50
50394;BME280;36308;46.312;25.288;2022-08-18T02:18:34;95827.16;;;18.68;72.54
50394;BME280;36308;46.312;25.288;2022-08-18T02:21:10;95839.81;;;18.73;72.77
50394;BME280;36308;46.312;25.288;2022-08-18T02:23:37;95843.03;;;18.75;72.77
50394;BME280;36308;46.312;25.288;2022-08-18T02:26:08;95834.38;;;18.73;72.80
50394;BME280;36308;46.312;25.288;2022-08-18T02:28:34;95834.88;;;18.75;72.66
50394;BME280;36308;46.312;25.288;2022-08-18T02:31:12;95841.94;;;18.76;72.80
50394;BME280;36308;46.312;25.288;2022-08-18T02:33:39;95842.44;;;18.78;72.64
50394;BME280;36308;46.312;25.288;2022-08-18T02:36:05;95842.44;;;18.78;72.67
50394;BME280;36308;46.312;25.288;2022-08-18T02:38:31;95839.38;;;18.80;72.75
50394;BME280;36308;46.312;25.288;2022-08-18T02:41:02;95821.41;;;18.70;72.81
50394;BME280;36308;46.312;25.288;2022-08-18T02:43:28;95833.94;;;18.80;72.68
50394;BME280;36308;46.312;25.288;2022-08-18T02:45:54;95822.88;;;18.76;73.07
50394;BME280;36308;46.312;25.288;2022-08-18T02:48:20;95832.03;;;18.80;72.63
50394;BME280;36308;46.312;25.288;2022-08-18T02:50:50;95841.34;;;18.88;72.73
50394;BME280;36308;46.312;25.288;2022-08-18T02:53:15;95838.31;;;18.89;73.06
50394;BME280;36308;46.312;25.288;2022-08-18T02:55:46;95845.34;;;18.90;72.90
50394;BME280;36308;46.312;25.288;2022-08-18T02:58:11;95817.41;;;18.76;72.76
50394;BME280;36308;46.312;25.288;2022-08-18T03:00:37;95839.09;;;18.90;72.63
50394;BME280;36308;46.312;25.288;2022-08-18T03:03:03;95840.56;;;18.96;72.63
50394;BME280;36308;46.312;25.288;2022-08-18T03:05:29;95844.91;;;18.97;72.79
50394;BME280;36308;46.312;25.288;2022-08-18T03:07:55;95831.91;;;18.94;72.79
50394;BME280;36308;46.312;25.288;2022-08-18T03:10:21;95835.91;;;18.96;72.65
50394;BME280;36308;46.312;25.288;2022-08-18T03:12:46;95827.91;;;18.91;72.67
50394;BME280;36308;46.312;25.288;2022-08-18T03:15:12;95822.16;;;18.93;72.45
50394;BME280;36308;46.312;25.288;2022-08-18T03:17:38;95834.16;;;19.01;72.51
50394;BME280;36308;46.312;25.288;2022-08-18T03:20:04;95833.06;;;19.02;72.62
50394;BME280;36308;46.312;25.288;2022-08-18T03:49:42;95818.66;;;19.01;72.20
50394;BME280;36308;46.312;25.288;2022-08-18T03:52:09;95829.06;;;19.08;72.14
50394;BME280;36308;46.312;25.288;2022-08-18T03:54:34;95820.06;;;18.98;72.14
50394;BME280;36308;46.312;25.288;2022-08-18T03:57:03;95828.28;;;19.07;72.15
50394;BME280;36308;46.312;25.288;2022-08-18T03:59:28;95837.88;;;19.05;72.40
50394;BME280;36308;46.312;25.288;2022-08-18T04:01:56;95833.25;;;19.05;72.18
50394;BME280;36308;46.312;25.288;2022-08-18T04:04:26;95835.63;;;19.07;72.17
50394;BME280;36308;46.312;25.288;2022-08-18T04:06:55;95832.91;;;19.07;72.49
50394;BME280;36308;46.312;25.288;2022-08-18T04:09:26;95840.28;;;19.06;72.41
50394;BME280;36308;46.312;25.288;2022-08-18T04:11:53;95849.25;;;19.07;72.40
50394;BME280;36308;46.312;25.288;2022-08-18T04:14:22;95850.06;;;19.07;72.29
50394;BME280;36308;46.312;25.288;2022-08-18T04:16:56;95832.75;;;19.03;72.31
50394;BME280;36308;46.312;25.288;2022-08-18T04:19:21;95835.59;;;18.98;72.31
50394;BME280;36308;46.312;25.288;2022-08-18T04:21:50;95847.00;;;19.09;72.53
50394;BME280;36308;46.312;25.288;2022-08-18T04:24:16;95852.47;;;19.09;72.64
50394;BME280;36308;46.312;25.288;2022-08-18T04:26:45;95846.22;;;19.08;72.36
50394;BME280;36308;46.312;25.288;2022-08-18T04:29:12;95839.13;;;18.98;72.38
50394;BME280;36308;46.312;25.288;2022-08-18T04:31:38;95857.13;;;19.08;72.52
50394;BME280;36308;46.312;25.288;2022-08-18T04:34:04;95848.47;;;19.06;72.68
50394;BME280;36308;46.312;25.288;2022-08-18T04:36:32;95860.63;;;19.09;72.83
50394;BME280;36308;46.312;25.288;2022-08-18T04:39:26;95859.53;;;19.10;72.63
50394;BME280;36308;46.312;25.288;2022-08-18T04:41:51;95834.81;;;18.97;72.80
50394;BME280;36308;46.312;25.288;2022-08-18T04:44:17;95845.06;;;19.01;72.56
50394;BME280;36308;46.312;25.288;2022-08-18T04:46:46;95857.28;;;19.12;72.79
50394;BME280;36308;46.312;25.288;2022-08-18T04:49:13;95864.34;;;19.13;72.25
50394;BME280;36308;46.312;25.288;2022-08-18T04:51:47;95865.16;;;19.13;72.68
50394;BME280;36308;46.312;25.288;2022-08-18T04:54:33;95860.03;;;19.12;72.49
50394;BME280;36308;46.312;25.288;2022-08-18T04:57:18;95864.34;;;19.13;72.69
50394;BME280;36308;46.312;25.288;2022-08-18T04:59:54;95860.16;;;19.07;72.59
50394;BME280;36308;46.312;25.288;2022-08-18T05:02:20;95859.19;;;19.03;72.66
50394;BME280;36308;46.312;25.288;2022-08-18T05:04:46;95874.63;;;19.16;72.41
50394;BME280;36308;46.312;25.288;2022-08-18T05:07:14;95873.19;;;19.18;72.20
50394;BME280;36308;46.312;25.288;2022-08-18T05:09:40;95871.72;;;19.21;72.25
50394;BME280;36308;46.312;25.288;2022-08-18T05:12:07;95863.72;;;19.16;72.18
50394;BME280;36308;46.312;25.288;2022-08-18T05:14:33;95874.31;;;19.26;72.10
50394;BME280;36308;46.312;25.288;2022-08-18T05:17:00;95878.03;;;19.30;72.14
50394;BME280;36308;46.312;25.288;2022-08-18T05:19:26;95877.69;;;19.32;71.88
50394;BME280;36308;46.312;25.288;2022-08-18T05:21:53;95874.66;;;19.33;72.11
50394;BME280;36308;46.312;25.288;2022-08-18T05:24:20;95865.97;;;19.31;71.60
50394;BME280;36308;46.312;25.288;2022-08-18T05:26:47;95863.75;;;19.33;71.11
50394;BME280;36308;46.312;25.288;2022-08-18T05:29:14;95859.91;;;19.34;70.73
50394;BME280;36308;46.312;25.288;2022-08-18T05:31:47;95881.59;;;19.57;70.31
50394;BME280;36308;46.312;25.288;2022-08-18T05:34:13;95887.38;;;19.64;69.80
50394;BME280;36308;46.312;25.288;2022-08-18T05:41:43;95880.19;;;19.86;69.04
50394;BME280;36308;46.312;25.288;2022-08-18T05:44:18;95886.28;;;19.91;68.88
50394;BME280;36308;46.312;25.288;2022-08-18T05:47:10;95875.56;;;19.86;68.76
50394;BME280;36308;46.312;25.288;2022-08-18T05:49:37;95884.03;;;20.02;68.97
50394;BME280;36308;46.312;25.288;2022-08-18T05:52:07;95880.19;;;20.03;69.02
50394;BME280;36308;46.312;25.288;2022-08-18T05:54:44;95876.00;;;20.06;69.11
50394;BME280;36308;46.312;25.288;2022-08-18T05:57:34;95879.69;;;20.18;69.00
50394;BME280;36308;46.312;25.288;2022-08-18T06:00:03;95880.03;;;20.26;68.93
50394;BME280;36308;46.312;25.288;2022-08-18T06:02:37;95875.34;;;20.26;68.96
50394;BME280;36308;46.312;25.288;2022-08-18T06:05:12;95892.66;;;20.39;68.97
50394;BME280;36308;46.312;25.288;2022-08-18T06:07:44;95889.13;;;20.47;69.24
50394;BME280;36308;46.312;25.288;2022-08-18T06:10:13;95879.16;;;20.51;69.18
50394;BME280;36308;46.312;25.288;2022-08-18T06:12:45;95879.47;;;20.58;69.00
50394;BME280;36308;46.312;25.288;2022-08-18T06:15:19;95885.72;;;20.68;69.24
50394;BME280;36308;46.312;25.288;2022-08-18T06:26:12;95896.53;;;21.03;68.08
50394;BME280;36308;46.312;25.288;2022-08-18T06:39:28;95892.03;;;21.36;67.27
50394;BME280;36308;46.312;25.288;2022-08-18T06:41:56;95859.91;;;21.25;66.69
50394;BME280;36308;46.312;25.288;2022-08-18T06:44:44;95887.78;;;21.48;66.67
50394;BME280;36308;46.312;25.288;2022-08-18T06:49:43;95887.41;;;21.58;66.27
50394;BME280;36308;46.312;25.288;2022-08-18T06:54:45;95868.72;;;21.60;66.45
50394;BME280;36308;46.312;25.288;2022-08-18T06:57:31;95875.56;;;21.75;66.50
50394;BME280;36308;46.312;25.288;2022-08-18T07:00:10;95876.50;;;21.79;66.38
50394;BME280;36308;46.312;25.288;2022-08-18T07:05:26;95884.25;;;21.98;66.20
50394;BME280;36308;46.312;25.288;2022-08-18T07:10:42;95887.97;;;22.14;65.84
50394;BME280;36308;46.312;25.288;2022-08-18T07:15:37;95851.22;;;22.15;66.10
50394;BME280;36308;46.312;25.288;2022-08-18T07:18:06;95878.59;;;22.36;66.02
50394;BME280;36308;46.312;25.288;2022-08-18T07:20:44;95858.31;;;22.37;65.59
50394;BME280;36308;46.312;25.288;2022-08-18T07:23:24;95879.00;;;22.59;65.15
50394;BME280;36308;46.312;25.288;2022-08-18T07:26:05;95871.03;;;22.67;65.29
50394;BME280;36308;46.312;25.288;2022-08-18T07:28:45;95872.88;;;22.75;65.16
50394;BME280;36308;46.312;25.288;2022-08-18T07:31:44;95864.31;;;22.76;64.78
50394;BME280;36308;46.312;25.288;2022-08-18T07:37:09;95871.31;;;22.98;64.60
50394;BME280;36308;46.312;25.288;2022-08-18T07:39:46;95870.88;;;23.09;64.50
50394;BME280;36308;46.312;25.288;2022-08-18T07:45:27;95877.75;;;23.27;64.16
50394;BME280;36308;46.312;25.288;2022-08-18T07:50:45;95862.53;;;23.42;63.66
50394;BME280;36308;46.312;25.288;2022-08-18T07:55:58;95855.06;;;23.55;63.39
50394;BME280;36308;46.312;25.288;2022-08-18T08:01:03;95863.28;;;23.79;62.44
50394;BME280;36308;46.312;25.288;2022-08-18T08:08:31;95876.00;;;24.12;62.00
50394;BME280;36308;46.312;25.288;2022-08-18T08:11:27;95869.56;;;24.20;62.24
50394;BME280;36308;46.312;25.288;2022-08-18T08:25:25;95889.59;;;24.93;60.16
50394;BME280;36308;46.312;25.288;2022-08-18T08:30:30;95883.13;;;25.17;59.41
50394;BME280;36308;46.312;25.288;2022-08-18T08:33:06;95877.91;;;25.28;59.04
50394;BME280;36308;46.312;25.288;2022-08-18T08:35:48;95879.75;;;25.40;59.06
50394;BME280;36308;46.312;25.288;2022-08-18T08:38:35;95879.28;;;25.54;58.68
50394;BME280;36308;46.312;25.288;2022-08-18T08:41:12;95871.69;;;25.67;58.49
50394;BME280;36308;46.312;25.288;2022-08-18T08:43:52;95852.88;;;25.69;57.88
50394;BME280;36308;46.312;25.288;2022-08-18T08:46:23;95875.47;;;25.94;57.54
50394;BME280;36308;46.312;25.288;2022-08-18T08:49:06;95854.47;;;26.05;57.01
50394;BME280;36308;46.312;25.288;2022-08-18T08:51:38;95867.34;;;26.20;56.28
50394;BME280;36308;46.312;25.288;2022-08-18T08:57:06;95865.53;;;26.48;55.41
50394;BME280;36308;46.312;25.288;2022-08-18T08:59:34;95860.25;;;26.58;55.49
50394;BME280;36308;46.312;25.288;2022-08-18T09:02:25;95874.72;;;26.75;54.35
50394;BME280;36308;46.312;25.288;2022-08-18T09:05:11;95874.69;;;26.94;53.92
50394;BME280;36308;46.312;25.288;2022-08-18T09:19:17;95871.06;;;27.63;52.00
50394;BME280;36308;46.312;25.288;2022-08-18T09:22:02;95878.56;;;27.63;52.11
50394;BME280;36308;46.312;25.288;2022-08-18T09:24:44;95873.03;;;27.63;51.78
50394;BME280;36308;46.312;25.288;2022-08-18T09:29:57;95874.47;;;27.53;51.71
50394;BME280;36308;46.312;25.288;2022-08-18T09:37:57;95880.84;;;27.57;52.02
50394;BME280;36308;46.312;25.288;2022-08-18T09:40:51;95868.38;;;27.70;52.14
50394;BME280;36308;46.312;25.288;2022-08-18T09:43:39;95870.72;;;27.91;52.36
50394;BME280;36308;46.312;25.288;2022-08-18T09:51:56;95867.91;;;28.52;51.74
50394;BME280;36308;46.312;25.288;2022-08-18T09:54:27;95871.16;;;28.61;51.22
50394;BME280;36308;46.312;25.288;2022-08-18T10:01:56;95874.44;;;28.70;50.37
50394;BME280;36308;46.312;25.288;2022-08-18T10:04:30;95852.25;;;28.67;50.78
50394;BME280;36308;46.312;25.288;2022-08-18T10:07:34;95873.44;;;28.89;50.29
50394;BME280;36308;46.312;25.288;2022-08-18T10:18:01;95871.22;;;29.06;49.55
50394;BME280;36308;46.312;25.288;2022-08-18T10:20:38;95866.84;;;29.05;49.52
50394;BME280;36308;46.312;25.288;2022-08-18T10:23:06;95870.81;;;29.04;49.73
50394;BME280;36308;46.312;25.288;2022-08-18T10:25:41;95865.22;;;29.00;49.82
50394;BME280;36308;46.312;25.288;2022-08-18T10:34:45;95869.88;;;28.92;50.64
50394;BME280;36308;46.312;25.288;2022-08-18T10:40:11;95862.28;;;28.82;50.90
50394;BME280;36308;46.312;25.288;2022-08-18T10:43:07;95873.72;;;28.77;51.58
50394;BME280;36308;46.312;25.288;2022-08-18T10:50:32;95863.16;;;28.52;52.25
50394;BME280;36308;46.312;25.288;2022-08-18T11:06:25;95889.44;;;28.05;54.25
50394;BME280;36308;46.312;25.288;2022-08-18T11:08:56;95892.84;;;27.95;54.29
50394;BME280;36308;46.312;25.288;2022-08-18T11:11:27;95889.13;;;27.84;54.63
50394;BME280;36308;46.312;25.288;2022-08-18T11:19:45;95899.94;;;27.42;55.11
50394;BME280;36308;46.312;25.288;2022-08-18T11:22:28;95907.25;;;27.31;55.19
50394;BME280;36308;46.312;25.288;2022-08-18T11:24:55;95908.56;;;27.18;55.29
50394;BME280;36308;46.312;25.288;2022-08-18T11:27:26;95898.91;;;27.05;55.45
50394;BME280;36308;46.312;25.288;2022-08-18T11:29:53;95898.75;;;26.97;55.85
50394;BME280;36308;46.312;25.288;2022-08-18T11:32:32;95898.56;;;26.87;56.50
50394;BME280;36308;46.312;25.288;2022-08-18T11:43:23;95890.84;;;26.53;57.62
50394;BME280;36308;46.312;25.288;2022-08-18T11:45:57;95891.88;;;26.45;57.72
50394;BME280;36308;46.312;25.288;2022-08-18T11:56:22;95886.94;;;26.15;58.46
50394;BME280;36308;46.312;25.288;2022-08-18T11:58:50;95882.09;;;26.09;58.75
50394;BME280;36308;46.312;25.288;2022-08-18T12:09:30;95864.13;;;25.79;59.00
50394;BME280;36308;46.312;25.288;2022-08-18T12:12:04;95866.47;;;25.77;59.43
50394;BME280;36308;46.312;25.288;2022-08-18T12:14:49;95870.34;;;25.76;59.59
50394;BME280;36308;46.312;25.288;2022-08-18T12:17:18;95874.28;;;25.75;59.36
50394;BME280;36308;46.312;25.288;2022-08-18T12:19:43;95867.81;;;25.68;59.39
50394;BME280;36308;46.312;25.288;2022-08-18T12:22:19;95871.88;;;25.74;59.85
50394;BME280;36308;46.312;25.288;2022-08-18T12:24:46;95876.59;;;25.73;59.75
50394;BME280;36308;46.312;25.288;2022-08-18T12:27:13;95864.69;;;25.69;60.19
50394;BME280;36308;46.312;25.288;2022-08-18T12:29:40;95874.78;;;25.81;60.21
50394;BME280;36308;46.312;25.288;2022-08-18T12:32:06;95872.81;;;25.81;60.23
50394;BME280;36308;46.312;25.288;2022-08-18T12:34:31;95859.69;;;25.75;60.59
50394;BME280;36308;46.312;25.288;2022-08-18T12:36:58;95875.28;;;25.87;60.73
50394;BME280;36308;46.312;25.288;2022-08-18T12:39:25;95863.41;;;25.83;60.37
50394;BME280;36308;46.312;25.288;2022-08-18T12:41:51;95864.00;;;25.92;60.61
50394;BME280;36308;46.312;25.288;2022-08-18T12:44:17;95859.03;;;25.97;60.50
50394;BME280;36308;46.312;25.288;2022-08-18T12:46:42;95861.50;;;26.03;60.74
50394;BME280;36308;46.312;25.288;2022-08-18T12:49:21;95866.28;;;26.06;59.96
50394;BME280;36308;46.312;25.288;2022-08-18T12:51:47;95866.34;;;26.09;59.76
50394;BME280;36308;46.312;25.288;2022-08-18T12:54:13;95867.94;;;26.10;59.28
50394;BME280;36308;46.312;25.288;2022-08-18T12:56:39;95847.34;;;26.04;59.33
50394;BME280;36308;46.312;25.288;2022-08-18T12:59:08;95864.16;;;26.18;59.33
50394;BME280;36308;46.312;25.288;2022-08-18T13:01:36;95849.25;;;26.19;59.46
50394;BME280;36308;46.312;25.288;2022-08-18T13:04:03;95861.56;;;26.26;59.58
50394;BME280;36308;46.312;25.288;2022-08-18T13:06:35;95846.19;;;26.25;59.47
50394;BME280;36308;46.312;25.288;2022-08-18T13:09:01;95837.06;;;26.20;59.75
50394;BME280;36308;46.312;25.288;2022-08-18T13:11:26;95853.59;;;26.40;59.72
50394;BME280;36308;46.312;25.288;2022-08-18T13:13:52;95857.03;;;26.56;58.58
50394;BME280;36308;46.312;25.288;2022-08-18T13:16:19;95863.66;;;26.71;58.20
50394;BME280;36308;46.312;25.288;2022-08-18T13:18:44;95852.78;;;26.82;58.18
50394;BME280;36308;46.312;25.288;2022-08-18T13:21:11;95830.72;;;26.82;57.64
50394;BME280;36308;46.312;25.288;2022-08-18T13:23:37;95835.63;;;26.92;57.21
50394;BME280;36308;46.312;25.288;2022-08-18T13:26:05;95851.66;;;27.10;57.22
50394;BME280;36308;46.312;25.288;2022-08-18T13:28:33;95840.00;;;27.20;56.75
50394;BME280;36308;46.312;25.288;2022-08-18T13:30:59;95833.16;;;27.33;56.20
50394;BME280;36308;46.312;25.288;2022-08-18T13:33:25;95837.22;;;27.43;55.82
50394;BME280;36308;46.312;25.288;2022-08-18T13:35:52;95842.50;;;27.52;55.85
50394;BME280;36308;46.312;25.288;2022-08-18T13:38:18;95835.59;;;27.65;55.11
50394;BME280;36308;46.312;25.288;2022-08-18T13:40:51;95832.13;;;27.72;54.40
50394;BME280;36308;46.312;25.288;2022-08-18T13:43:23;95836.31;;;27.89;53.60
50394;BME280;36308;46.312;25.288;2022-08-18T13:45:56;95829.75;;;28.00;52.50
50394;BME280;36308;46.312;25.288;2022-08-18T13:48:23;95823.22;;;28.12;51.77
50394;BME280;36308;46.312;25.288;2022-08-18T13:50:51;95822.13;;;28.24;51.41
50394;BME280;36308;46.312;25.288;2022-08-18T13:53:18;95814.72;;;28.32;50.40
50394;BME280;36308;46.312;25.288;2022-08-18T13:55:44;95826.72;;;28.47;49.63
50394;BME280;36308;46.312;25.288;2022-08-18T13:58:10;95782.34;;;28.32;49.28
50394;BME280;36308;46.312;25.288;2022-08-18T14:00:37;95815.88;;;28.65;48.89
50394;BME280;36308;46.312;25.288;2022-08-18T14:03:05;95798.50;;;28.68;48.78
50394;BME280;36308;46.312;25.288;2022-08-18T14:05:31;95812.56;;;28.89;48.31
50394;BME280;36308;46.312;25.288;2022-08-18T14:07:58;95807.47;;;28.98;48.06
50394;BME280;36308;46.312;25.288;2022-08-18T14:10:23;95816.31;;;29.11;47.62
50394;BME280;36308;46.312;25.288;2022-08-18T14:12:56;95799.31;;;29.13;47.45
50394;BME280;36308;46.312;25.288;2022-08-18T14:15:22;95787.84;;;29.11;47.30
50394;BME280;36308;46.312;25.288;2022-08-18T14:17:48;95822.84;;;29.37;46.49
50394;BME280;36308;46.312;25.288;2022-08-18T14:20:14;95819.72;;;29.46;46.99
50394;BME280;36308;46.312;25.288;2022-08-18T14:22:59;95792.78;;;29.39;46.70
50394;BME280;36308;46.312;25.288;2022-08-18T14:25:44;95811.91;;;29.62;46.12
50394;BME280;36308;46.312;25.288;2022-08-18T14:28:29;95812.34;;;29.68;45.77
50394;BME280;36308;46.312;25.288;2022-08-18T14:30:57;95819.16;;;29.74;45.59
50394;BME280;36308;46.312;25.288;2022-08-18T14:33:25;95799.34;;;29.75;45.28
50394;BME280;36308;46.312;25.288;2022-08-18T14:35:54;95791.44;;;29.74;45.06
50394;BME280;36308;46.312;25.288;2022-08-18T14:38:27;95793.84;;;29.83;44.99
50394;BME280;36308;46.312;25.288;2022-08-18T14:40:52;95793.06;;;29.86;45.47
50394;BME280;36308;46.312;25.288;2022-08-18T14:43:19;95781.16;;;29.81;44.85
50394;BME280;36308;46.312;25.288;2022-08-18T14:45:46;95797.84;;;29.96;44.14
50394;BME280;36308;46.312;25.288;2022-08-18T14:48:21;95799.44;;;29.97;44.08
50394;BME280;36308;46.312;25.288;2022-08-18T14:50:53;95793.09;;;29.96;44.00
50394;BME280;36308;46.312;25.288;2022-08-18T14:53:22;95786.75;;;29.96;43.51
50394;BME280;36308;46.312;25.288;2022-08-18T14:55:50;95789.91;;;29.94;43.47
50394;BME280;36308;46.312;25.288;2022-08-18T14:58:18;95789.91;;;29.94;43.22
50394;BME280;36308;46.312;25.288;2022-08-18T15:00:45;95784.34;;;29.84;43.55
50394;BME280;36308;46.312;25.288;2022-08-18T15:03:12;95796.22;;;29.88;43.71
50394;BME280;36308;46.312;25.288;2022-08-18T15:05:37;95793.09;;;29.93;43.54
50394;BME280;36308;46.312;25.288;2022-08-18T15:08:03;95791.53;;;29.95;43.65
50394;BME280;36308;46.312;25.288;2022-08-18T15:10:30;95787.56;;;29.93;43.01
50394;BME280;36308;46.312;25.288;2022-08-18T15:12:56;95785.19;;;29.95;43.25
50394;BME280;36308;46.312;25.288;2022-08-18T15:15:26;95791.94;;;29.97;43.08
50394;BME280;36308;46.312;25.288;2022-08-18T15:17:51;95787.16;;;29.98;43.19
50394;BME280;36308;46.312;25.288;2022-08-18T15:20:17;95782.03;;;30.00;43.08
50394;BME280;36308;46.312;25.288;2022-08-18T15:22:44;95768.16;;;30.00;43.36
50394;BME280;36308;46.312;25.288;2022-08-18T15:25:29;95775.31;;;30.01;43.53
50394;BME280;36308;46.312;25.288;2022-08-18T15:28:15;95775.69;;;29.99;43.33
50394;BME280;36308;46.312;25.288;2022-08-18T15:30:43;95760.59;;;29.90;43.30
50394;BME280;36308;46.312;25.288;2022-08-18T15:33:08;95773.31;;;29.98;43.79
50394;BME280;36308;46.312;25.288;2022-08-18T15:35:35;95770.53;;;29.98;43.68
50394;BME280;36308;46.312;25.288;2022-08-18T15:38:01;95771.75;;;29.97;43.54
50394;BME280;36308;46.312;25.288;2022-08-18T15:40:27;95768.56;;;29.95;43.54
50394;BME280;36308;46.312;25.288;2022-08-18T15:42:59;95764.16;;;29.90;43.00
50394;BME280;36308;46.312;25.288;2022-08-18T15:45:30;95769.72;;;29.90;42.95
50394;BME280;36308;46.312;25.288;2022-08-18T15:47:57;95775.25;;;29.87;43.31
50394;BME280;36308;46.312;25.288;2022-08-18T15:50:23;95770.06;;;29.81;43.05
50394;BME280;36308;46.312;25.288;2022-08-18T15:52:55;95777.97;;;29.76;43.22
50394;BME280;36308;46.312;25.288;2022-08-18T15:55:23;95762.88;;;29.66;43.62
50394;BME280;36308;46.312;25.288;2022-08-18T15:57:49;95779.94;;;29.75;43.24
50394;BME280;36308;46.312;25.288;2022-08-18T16:00:16;95781.91;;;29.71;43.52
50394;BME280;36308;46.312;25.288;2022-08-18T16:02:49;95779.50;;;29.66;43.43
50394;BME280;36308;46.312;25.288;2022-08-18T16:05:18;95784.22;;;29.62;43.71
50394;BME280;36308;46.312;25.288;2022-08-18T16:07:46;95790.50;;;29.55;43.70
50394;BME280;36308;46.312;25.288;2022-08-18T16:10:14;95793.63;;;29.50;44.21
50394;BME280;36308;46.312;25.288;2022-08-18T16:12:40;95789.63;;;29.40;44.26
50394;BME280;36308;46.312;25.288;2022-08-18T16:15:05;95795.16;;;29.37;43.95
50394;BME280;36308;46.312;25.288;2022-08-18T16:17:31;95795.88;;;29.27;44.42
50394;BME280;36308;46.312;25.288;2022-08-18T16:19:57;95797.41;;;29.20;44.55
50394;BME280;36308;46.312;25.288;2022-08-18T16:22:24;95797.28;;;29.06;44.55
50394;BME280;36308;46.312;25.288;2022-08-18T16:24:49;95792.47;;;28.99;44.64